< < Back
Terminal Aerodrome Forecast


Current Version              Previous Versions:   1  2  3  4  5  6  7  8  9  

Terminal Aerodrome Forecast

453
FTUS42 KFFC 270341 AAB
TAFATL
TAF AMD
KATL 270341Z 2704/2806 23007KT P6SM SCT050 BKN200
      TEMPO 2704/2705 6SM -SHRA BR BKN040
     FM270500 30010G15KT 6SM -SHRA BR SCT010 OVC020
     FM270700 31010KT P6SM -RA OVC008
     FM271100 32012G20KT P6SM BKN020
     FM271500 33015G25KT P6SM SCT025 BKN050
     FM272100 32012G22KT P6SM BKN070
     FM280300 32012KT P6SM SCT100=



Latest METAR

171
SAUS70 KWBC 271300 RRC
MTRATL
METAR KATL 271252Z 31014KT 10SM OVC011 08/05 A2981 RMK AO2 SLP093 CIG
009V013 T00830050


USA.gov is the U.S. government's official web portal to all federal, state and local government web resources and services.